Nearby METAR Reports

 

KAUS - Austin, Texas, USA
Distance from station: WNW 16mi, 26km
Updated: Wed, 12-Dec-2018 4:53pm CST
Overcast
Overcast
 Wind from SSW
Wind: SSW 6 mph , 9 km/h
Temperature: 64°F , 18°C
Dew Point: 57°F , 14°C
Humidity: 78%
Barometer: 29.89 inHg , 1012.2 hPa
Clouds: Overcast
Visibility: 10 miles , 16 km
Cloud details: Partly cloudy 2400 ft
Mostly cloudy 3700 ft
Overcast 20000 ft
2018/12/12 22:53 KAUS 122253Z 20005KT 10SM SCT024 BKN037 OVC200 18/14 A2989 RMK AO2 SLP117 T01830144
KEDC - Austin Exec, Texas, USA
Distance from station: NNW 21mi, 34km
Updated: Wed, 12-Dec-2018 5:35pm CST
Partly cloudy
Partly cloudy
 Wind from S
Wind: S 5 mph , 7 km/h
Temperature: 63°F , 17°C
Dew Point: 57°F , 14°C
Humidity: 83%
Barometer: 29.89 inHg , 1012.2 hPa
Clouds: Partly cloudy
Visibility: 10 miles , 16 km
Cloud details: Partly cloudy 2500 ft
2018/12/12 23:35 KEDC 122335Z AUTO 19004KT 10SM SCT025 17/14 A2989 RMK AO2
 
KATT - Austin/Mabry, Texas, USA
Distance from station: NW 25mi, 39km
Updated: Wed, 12-Dec-2018 4:51pm CST
Clear
Clear
 Wind from varies
Wind: varies 5 mph , 7 km/h
Temperature: 64°F , 18°C
Dew Point: 55°F , 13°C
Humidity: 73%
Barometer: 29.90 inHg , 1012.5 hPa
Clouds: Clear
Visibility: 10 miles , 16 km
2018/12/12 22:51 KATT 122251Z AUTO VRB04KT 10SM CLR 18/13 A2990 RMK AO2 SLP121 T01780133
KGYB - Giddings-Lee, Texas, USA
Distance from station: E 27mi, 43km
Updated: Wed, 12-Dec-2018 5:35pm CST
Overcast
Overcast
 Wind from S
Wind: S 5 mph , 7 km/h
Temperature: 64°F , 18°C
Dew Point: 59°F , 15°C
Humidity: 83%
Barometer: 29.90 inHg , 1012.5 hPa
Clouds: Overcast
Visibility: 10 miles , 16 km
Cloud details: Overcast 2200 ft
2018/12/12 23:35 KGYB 122335Z AUTO 17004KT 10SM OVC022 18/15 A2990 RMK AO2 T01800150
 
KHYI - San Marcos, Texas, USA
Distance from station: WSW 31mi, 49km
Updated: Wed, 12-Dec-2018 3:56pm CST
NOT Current
Few Clouds
Few Clouds
 Wind from SW
Wind: SW 8 mph , 13 km/h
Temperature: 64°F , 18°C
Dew Point: 57°F , 14°C
Humidity: 78%
Barometer: 29.91 inHg , 1012.9 hPa
Clouds: Few Clouds
Visibility: 10 miles , 16 km
Cloud details: Few Clouds 2300 ft
2018/12/12 21:56 KHYI 122156Z 22007KT 10SM FEW023 18/14 A2991 RMK AO2 SLP123 T01830144
K3T5 - La Grange, Texas, USA
Distance from station: ESE 32mi, 52km
Updated: Wed, 12-Dec-2018 5:35pm CST
Mostly cloudy
Mostly cloudy
 Wind from SSE
Wind: SSE 7 mph , 11 km/h
Temperature: 66°F , 19°C
Dew Point: 63°F , 17°C
Humidity: 88%
Barometer: 29.88 inHg , 1011.9 hPa
Clouds: Mostly cloudy
Visibility: 10 miles , 16 km
Cloud details: Partly cloudy 2100 ft
Partly cloudy 2700 ft
Mostly cloudy 3700 ft
2018/12/12 23:35 K3T5 122335Z AUTO 16006KT 10SM SCT021 SCT027 BKN037 19/17 A2988 RMK AO2 T01910173
 
KT20 - Gonzales Muni, Texas, USA
Distance from station: S 41mi, 67km
Updated: Wed, 12-Dec-2018 5:35pm CST
Overcast
Overcast
 Wind from SSE
Wind: SSE 7 mph , 11 km/h
Temperature: 68°F , 20°C
Dew Point: 61°F , 16°C
Humidity: 78%
Barometer: 29.88 inHg , 1011.9 hPa
Clouds: Overcast
Visibility: 10 miles , 16 km
Cloud details: Mostly cloudy 2400 ft
Mostly cloudy 2900 ft
Overcast 3500 ft
2018/12/12 23:35 KT20 122335Z AUTO 16006KT 10SM BKN024 BKN029 OVC035 20/16 A2988 RMK AO2 T01970163
KRYW - Lago Vista, Texas, USA
Distance from station: NW 42mi, 67km
Updated: Wed, 12-Dec-2018 5:35pm CST
Clear
Clear
 Wind from S
Wind: S 7 mph , 11 km/h
Temperature: 61°F , 16°C
Dew Point: 57°F , 14°C
Humidity: 88%
Barometer: 29.89 inHg , 1012.2 hPa
Clouds: Clear
Visibility: 10 miles , 16 km
2018/12/12 23:35 KRYW 122335Z AUTO 19006KT 10SM CLR 16/14 A2989 RMK AO2 T01610135
 
KGTU - Georgetown, Texas, USA
Distance from station: NNW 42mi, 68km
Updated: Wed, 12-Dec-2018 4:56pm CST
Clear
Clear
 Wind from S
Wind: S 13 mph , 20 km/h
Temperature: 64°F , 18°C
Dew Point: 55°F , 13°C
Humidity: 73%
Barometer: 29.90 inHg , 1012.5 hPa
Clouds: Clear
Visibility: 10 miles , 16 km
2018/12/12 22:56 KGTU 122256Z 19011KT 10SM CLR 18/13 A2990 RMK AO2 SLP122 T01780133
KBAZ - New Braunfels, Texas, USA
Distance from station: SW 46mi, 74km
Updated: Wed, 12-Dec-2018 4:51pm CST
Clear
Clear
 Wind from SW
Wind: SW 6 mph , 9 km/h
Temperature: 63°F , 17°C
Dew Point: 57°F , 14°C
Humidity: 83%
Barometer: 29.88 inHg , 1011.9 hPa
Clouds: Clear
Visibility: 10 miles , 16 km
2018/12/12 22:51 KBAZ 122251Z 22005KT 10SM CLR 17/14 A2988 RMK AO2 SLP115 T01720139